createdAt,value
2018-05-29T00:00:51.384Z,59.50
2018-05-29T00:03:19.751Z,60.00
2018-05-29T00:05:48.758Z,60.00
2018-05-29T00:08:17.018Z,60.00
2018-05-29T00:10:46.044Z,60.20
2018-05-29T00:13:14.296Z,59.80
2018-05-29T00:15:43.322Z,60.20
2018-05-29T00:18:11.570Z,60.20
2018-05-29T00:20:40.096Z,60.00
2018-05-29T00:23:08.349Z,59.70
2018-05-29T00:25:36.600Z,59.90
2018-05-29T00:28:05.295Z,59.80
2018-05-29T00:30:33.538Z,59.40
2018-05-29T00:33:02.557Z,58.70
2018-05-29T00:35:30.847Z,58.60
2018-05-29T00:37:59.114Z,58.30
2018-05-29T00:40:27.365Z,58.90
2018-05-29T00:42:56.491Z,59.70
2018-05-29T00:45:24.740Z,58.90
2018-05-29T00:47:52.996Z,58.70
2018-05-29T00:50:22.913Z,58.10
2018-05-29T00:52:51.926Z,58.60
2018-05-29T00:55:32.075Z,59.40
2018-05-29T00:58:00.331Z,59.70
2018-05-29T01:00:28.589Z,60.70
2018-05-29T01:02:57.103Z,60.90
2018-05-29T01:05:26.131Z,60.90
2018-05-29T01:07:54.375Z,60.90
2018-05-29T01:10:22.639Z,60.90
2018-05-29T01:12:51.656Z,60.50
2018-05-29T01:15:19.911Z,60.50
2018-05-29T01:17:48.180Z,60.40
2018-05-29T01:20:17.343Z,60.80
2018-05-29T01:22:45.594Z,60.80
2018-05-29T01:25:13.839Z,60.30
2018-05-29T01:27:42.252Z,60.40
2018-05-29T01:30:11.265Z,60.40
2018-05-29T01:32:39.508Z,60.40
2018-05-29T01:35:07.771Z,60.30
2018-05-29T01:37:36.051Z,60.30
2018-05-29T01:40:04.324Z,60.10
2018-05-29T01:42:32.606Z,59.90
2018-05-29T01:45:00.851Z,60.00
2018-05-29T01:47:29.119Z,60.10
2018-05-29T01:49:58.150Z,60.10
2018-05-29T01:52:26.404Z,60.10
2018-05-29T01:54:54.672Z,60.00
2018-05-29T01:57:22.930Z,60.20
2018-05-29T01:59:51.189Z,60.10
2018-05-29T02:02:19.444Z,60.40
2018-05-29T02:04:47.690Z,60.80
2018-05-29T02:07:15.959Z,60.80
2018-05-29T02:09:44.246Z,60.80
2018-05-29T02:12:12.646Z,61.00
2018-05-29T02:14:40.894Z,61.20
2018-05-29T02:17:09.156Z,60.90
2018-05-29T02:19:37.426Z,60.80
2018-05-29T02:22:05.683Z,60.80
2018-05-29T02:24:34.715Z,61.10
2018-05-29T02:27:02.971Z,61.10
2018-05-29T02:29:31.235Z,60.90
2018-05-29T02:32:00.267Z,60.90
2018-05-29T02:34:28.547Z,60.90
2018-05-29T02:36:56.815Z,60.50
2018-05-29T02:39:25.079Z,60.40
2018-05-29T02:41:53.327Z,60.20
2018-05-29T02:44:22.364Z,60.80
2018-05-29T02:46:50.615Z,60.80
2018-05-29T02:49:18.883Z,60.80
2018-05-29T02:51:47.135Z,61.00
2018-05-29T02:54:16.183Z,61.70
2018-05-29T02:56:44.441Z,61.50
2018-05-29T02:59:12.707Z,61.40
2018-05-29T03:01:40.955Z,61.50
2018-05-29T03:04:09.996Z,61.60
2018-05-29T03:06:38.243Z,61.60
2018-05-29T03:09:06.492Z,61.80
2018-05-29T03:11:35.518Z,62.30
2018-05-29T03:14:03.770Z,62.10
2018-05-29T03:16:32.811Z,62.10
2018-05-29T03:19:01.053Z,62.10
2018-05-29T03:21:29.399Z,61.80
2018-05-29T03:23:58.420Z,62.60
2018-05-29T03:26:26.691Z,61.90
2018-05-29T03:28:55.703Z,61.80
2018-05-29T03:31:23.955Z,61.80
2018-05-29T03:33:52.215Z,61.60
2018-05-29T03:36:21.246Z,61.30
2018-05-29T03:38:49.503Z,61.30
2018-05-29T03:41:17.897Z,61.50
2018-05-29T03:43:46.163Z,61.30
2018-05-29T03:46:14.412Z,61.10
2018-05-29T03:48:43.445Z,61.00
2018-05-29T03:51:11.694Z,61.00
2018-05-29T03:53:40.707Z,61.30
2018-05-29T03:56:08.979Z,61.30
2018-05-29T03:58:37.231Z,61.50
2018-05-29T04:01:06.562Z,61.70
2018-05-29T04:03:34.808Z,61.00
2018-05-29T04:06:03.815Z,61.00
2018-05-29T04:08:32.085Z,61.00
2018-05-29T04:11:00.335Z,61.10
2018-05-29T04:13:28.607Z,61.50
2018-05-29T04:15:57.644Z,61.40
2018-05-29T04:18:25.908Z,61.40
2018-05-29T04:20:54.163Z,61.20
2018-05-29T04:23:23.171Z,61.50
2018-05-29T04:25:51.695Z,61.50
2018-05-29T04:28:19.944Z,61.70
2018-05-29T04:30:48.543Z,61.80
2018-05-29T04:33:16.805Z,62.30
2018-05-29T04:35:45.051Z,62.70
2018-05-29T04:38:14.079Z,63.80
2018-05-29T04:40:42.343Z,63.80
2018-05-29T04:43:10.819Z,64.20
2018-05-29T04:45:39.067Z,63.30
2018-05-29T04:48:08.080Z,62.70
2018-05-29T04:50:36.349Z,62.60
2018-05-29T04:53:05.348Z,62.70
2018-05-29T04:55:33.725Z,62.70
2018-05-29T04:58:01.978Z,62.70
2018-05-29T05:00:30.991Z,62.60
2018-05-29T05:02:59.263Z,62.60
2018-05-29T05:05:27.527Z,62.70
2018-05-29T05:07:56.542Z,62.70
2018-05-29T05:10:24.823Z,62.70
2018-05-29T05:12:53.080Z,63.20
2018-05-29T05:15:21.346Z,63.60
2018-05-29T05:17:50.355Z,64.10
2018-05-29T05:20:18.673Z,64.10
2018-05-29T05:22:46.875Z,63.80
2018-05-29T05:25:15.888Z,63.30
2018-05-29T05:27:44.140Z,63.20
2018-05-29T05:30:12.803Z,63.60
2018-05-29T05:32:41.050Z,64.10
2018-05-29T05:35:09.450Z,63.60
2018-05-29T05:37:37.698Z,63.60
2018-05-29T05:40:05.951Z,63.50
2018-05-29T05:42:34.219Z,63.20
2018-05-29T05:45:03.244Z,63.40
2018-05-29T05:47:31.494Z,63.40
2018-05-29T05:49:59.751Z,63.60
2018-05-29T05:52:28.788Z,64.30
2018-05-29T05:54:57.039Z,64.30
2018-05-29T05:57:25.295Z,64.50
2018-05-29T05:59:54.324Z,63.80
2018-05-29T06:02:22.581Z,63.80
2018-05-29T06:04:50.826Z,64.20
2018-05-29T06:07:20.168Z,64.30
2018-05-29T06:09:48.424Z,64.30
2018-05-29T06:12:16.675Z,64.40
2018-05-29T06:14:45.848Z,63.50
2018-05-29T06:17:14.087Z,63.40
2018-05-29T06:19:42.346Z,63.90
2018-05-29T06:22:10.608Z,64.00
2018-05-29T06:24:39.631Z,64.30
2018-05-29T06:27:07.884Z,64.30
2018-05-29T06:29:36.293Z,63.20
2018-05-29T06:32:04.535Z,63.30
2018-05-29T06:34:32.793Z,63.00
2018-05-29T06:37:01.920Z,63.50
2018-05-29T06:39:30.248Z,63.20
2018-05-29T06:41:58.479Z,62.80
2018-05-29T06:44:26.743Z,63.20
2018-05-29T06:46:55.012Z,63.20
2018-05-29T06:49:23.386Z,62.50
2018-05-29T06:51:51.639Z,62.70
2018-05-29T06:54:20.655Z,62.30
2018-05-29T06:56:48.924Z,62.30
2018-05-29T06:59:17.179Z,61.80
2018-05-29T07:01:45.440Z,61.90
2018-05-29T07:04:13.699Z,61.20
2018-05-29T07:06:41.940Z,61.20
2018-05-29T07:09:10.214Z,60.30
2018-05-29T07:11:38.459Z,61.20
2018-05-29T07:14:07.789Z,61.20
2018-05-29T07:16:36.043Z,61.10
2018-05-29T07:19:05.059Z,60.50
2018-05-29T07:21:33.576Z,61.10
2018-05-29T07:24:01.836Z,59.90
2018-05-29T07:26:30.080Z,60.40
2018-05-29T07:28:58.351Z,61.10
2018-05-29T07:31:26.606Z,60.40
2018-05-29T07:33:55.627Z,61.40
2018-05-29T07:36:23.881Z,60.80
2018-05-29T07:38:52.910Z,61.70
2018-05-29T07:41:21.165Z,61.70
2018-05-29T07:43:49.410Z,61.80
2018-05-29T07:46:18.443Z,61.20
2018-05-29T07:48:46.700Z,61.20
2018-05-29T07:51:14.944Z,61.10
2018-05-29T07:53:43.199Z,61.00
2018-05-29T07:56:11.460Z,61.10
2018-05-29T07:58:39.707Z,61.40
2018-05-29T08:01:07.953Z,61.10
2018-05-29T08:03:36.982Z,60.60
2018-05-29T08:06:05.228Z,60.50
2018-05-29T08:08:34.257Z,60.90
2018-05-29T08:11:02.532Z,60.90
2018-05-29T08:13:31.087Z,60.20
2018-05-29T08:16:00.251Z,60.80
2018-05-29T08:18:28.509Z,60.80
2018-05-29T08:20:56.760Z,60.30
2018-05-29T08:23:25.018Z,60.70
2018-05-29T08:25:53.262Z,60.80
2018-05-29T08:28:21.522Z,60.30
2018-05-29T08:30:49.790Z,60.00
2018-05-29T08:33:18.039Z,60.10
2018-05-29T08:35:46.307Z,60.20
2018-05-29T08:38:14.552Z,59.90
2018-05-29T08:40:43.563Z,60.60
2018-05-29T08:43:11.829Z,60.60
2018-05-29T08:45:40.081Z,59.70
2018-05-29T08:48:09.125Z,60.60
2018-05-29T08:50:37.380Z,60.60
2018-05-29T08:53:05.637Z,60.90
2018-05-29T08:55:34.664Z,60.60
2018-05-29T08:58:02.914Z,60.50
2018-05-29T09:00:31.155Z,60.20
2018-05-29T09:02:59.566Z,59.60
2018-05-29T09:05:27.811Z,60.10
2018-05-29T09:07:56.060Z,60.10
2018-05-29T09:10:24.323Z,59.00
2018-05-29T09:12:52.568Z,58.50
2018-05-29T09:15:20.849Z,58.60
2018-05-29T09:17:49.085Z,58.90
2018-05-29T09:20:17.324Z,58.20
2018-05-29T09:22:45.591Z,57.70
2018-05-29T09:25:13.833Z,58.20
2018-05-29T09:27:42.090Z,58.70
2018-05-29T09:30:11.140Z,57.40
2018-05-29T09:32:39.388Z,57.40
2018-05-29T09:35:07.642Z,56.60
2018-05-29T09:37:36.660Z,55.80
2018-05-29T09:40:04.900Z,55.70
2018-05-29T09:42:34.032Z,56.70
2018-05-29T09:45:02.282Z,56.60
2018-05-29T09:47:31.286Z,55.70
2018-05-29T09:49:59.555Z,55.60
2018-05-29T09:52:28.574Z,54.60
2018-05-29T09:54:56.823Z,54.60
2018-05-29T09:57:25.245Z,55.10
2018-05-29T09:59:53.479Z,54.90
2018-05-29T10:02:22.488Z,53.80
2018-05-29T10:04:50.755Z,53.80
2018-05-29T10:07:19.004Z,53.70
2018-05-29T10:09:48.026Z,53.80
2018-05-29T10:12:16.294Z,53.80
2018-05-29T10:14:44.552Z,53.90
2018-05-29T10:17:12.959Z,53.90
2018-05-29T10:19:41.209Z,53.90
2018-05-29T10:22:09.462Z,53.50
2018-05-29T10:24:37.751Z,53.20
2018-05-29T10:27:05.999Z,53.40
2018-05-29T10:29:34.264Z,54.40
2018-05-29T10:32:02.524Z,54.80
2018-05-29T10:34:30.785Z,54.60
2018-05-29T10:36:59.052Z,53.80
2018-05-29T10:39:27.307Z,53.60
2018-05-29T10:41:55.642Z,54.70
2018-05-29T10:44:24.674Z,55.20
2018-05-29T10:46:53.711Z,55.60
2018-05-29T10:49:21.984Z,55.10
2018-05-29T10:51:50.232Z,54.20
2018-05-29T10:54:18.704Z,52.40
2018-05-29T10:56:46.952Z,52.10
2018-05-29T10:59:15.239Z,51.70
2018-05-29T11:01:43.492Z,52.10
2018-05-29T11:04:11.734Z,52.20
2018-05-29T11:06:41.627Z,53.10
2018-05-29T11:09:11.660Z,53.90
2018-05-29T11:11:39.902Z,53.80
2018-05-29T11:14:08.931Z,53.40
2018-05-29T11:16:37.199Z,53.40
2018-05-29T11:19:05.813Z,53.00
2018-05-29T11:21:34.055Z,53.00
2018-05-29T11:24:02.307Z,52.90
2018-05-29T11:26:30.598Z,52.50
2018-05-29T11:28:58.853Z,53.00
2018-05-29T11:31:27.881Z,52.80
2018-05-29T11:33:56.189Z,52.80
2018-05-29T11:36:24.420Z,52.70
2018-05-29T11:38:52.669Z,52.10
2018-05-29T11:41:21.691Z,53.70
2018-05-29T11:43:49.937Z,53.70
2018-05-29T11:46:18.974Z,52.80
2018-05-29T11:48:47.215Z,52.80
2018-05-29T11:51:15.587Z,52.30
2018-05-29T11:53:43.850Z,52.30
2018-05-29T11:56:12.871Z,52.90
2018-05-29T11:58:41.140Z,52.90
2018-05-29T12:01:09.387Z,53.40
2018-05-29T12:03:38.415Z,53.80
2018-05-29T12:06:06.679Z,53.70
2018-05-29T12:08:34.939Z,53.70
2018-05-29T12:11:03.964Z,52.50
2018-05-29T12:13:32.208Z,52.50
2018-05-29T12:16:01.250Z,52.80
2018-05-29T12:18:29.511Z,52.70
2018-05-29T12:20:57.917Z,52.80
2018-05-29T12:23:26.163Z,51.10
2018-05-29T12:25:54.417Z,52.40
2018-05-29T12:28:22.690Z,52.90
2018-05-29T12:30:50.934Z,52.50
2018-05-29T12:33:19.187Z,53.50
2018-05-29T12:35:47.454Z,54.30
2018-05-29T12:38:15.697Z,53.50
2018-05-29T12:40:43.972Z,53.60
2018-05-29T12:43:12.206Z,53.80
2018-05-29T12:48:34.509Z,53.50
2018-05-29T12:51:02.772Z,54.20
2018-05-29T12:53:31.036Z,55.50
2018-05-29T12:56:00.062Z,55.20
2018-05-29T12:58:28.319Z,55.10
2018-05-29T13:00:56.603Z,55.60
2018-05-29T13:03:24.892Z,55.20
2018-05-29T13:05:53.128Z,56.10
2018-05-29T13:08:22.154Z,57.10
2018-05-29T13:10:50.443Z,57.10
2018-05-29T13:13:18.718Z,56.40
2018-05-29T13:15:46.992Z,56.50
2018-05-29T13:18:15.279Z,56.30
2018-05-29T13:20:43.539Z,54.40
2018-05-29T13:23:11.806Z,53.90
2018-05-29T13:25:40.070Z,55.70
2018-05-29T13:28:08.516Z,54.50
2018-05-29T13:30:36.716Z,54.90
2018-05-29T13:33:04.982Z,53.40
2018-05-29T13:35:33.405Z,53.80
2018-05-29T13:38:01.682Z,54.70
2018-05-29T13:40:29.942Z,54.70
2018-05-29T13:42:58.234Z,55.10
2018-05-29T13:45:26.499Z,54.20
2018-05-29T13:47:54.755Z,54.70
2018-05-29T13:50:23.004Z,55.30
2018-05-29T13:52:51.277Z,55.10
2018-05-29T13:55:20.291Z,55.00
2018-05-29T13:57:48.568Z,55.00
2018-05-29T14:00:16.830Z,55.70
2018-05-29T14:02:45.109Z,56.90
2018-05-29T14:05:13.365Z,57.90
2018-05-29T14:07:42.372Z,54.30
2018-05-29T14:10:10.659Z,54.20
2018-05-29T14:12:39.239Z,55.70
2018-05-29T14:15:07.475Z,53.90
2018-05-29T14:17:35.770Z,54.70
2018-05-29T14:20:04.798Z,52.50
2018-05-29T14:22:33.062Z,52.50
2018-05-29T14:25:01.384Z,53.30
2018-05-29T14:27:29.812Z,54.00
2018-05-29T14:29:58.047Z,53.70
2018-05-29T14:32:26.299Z,54.70
2018-05-29T14:34:54.695Z,53.80
2018-05-29T14:37:22.914Z,53.20
2018-05-29T14:39:51.197Z,52.00
2018-05-29T14:42:19.475Z,51.70
2018-05-29T14:44:47.706Z,51.80
2018-05-29T14:47:16.748Z,51.20
2018-05-29T14:49:45.034Z,51.20
2018-05-29T14:52:13.295Z,52.60
2018-05-29T14:54:41.548Z,52.20
2018-05-29T14:57:09.838Z,50.80
2018-05-29T14:59:38.139Z,51.20
2018-05-29T15:02:06.424Z,52.10
2018-05-29T15:04:35.504Z,50.20
2018-05-29T15:07:03.765Z,50.20
2018-05-29T15:09:32.026Z,50.40
2018-05-29T15:12:00.329Z,49.80
2018-05-29T15:14:28.584Z,49.20
2018-05-29T15:16:56.845Z,49.50
2018-05-29T15:19:25.134Z,49.70
2018-05-29T15:21:53.397Z,49.20
2018-05-29T15:24:21.660Z,49.20
2018-05-29T15:26:50.729Z,48.20
2018-05-29T15:29:18.990Z,48.20
2018-05-29T15:31:47.246Z,49.20
2018-05-29T15:34:16.294Z,48.20
2018-05-29T15:36:45.326Z,48.20
2018-05-29T15:39:13.593Z,48.20
2018-05-29T15:41:42.072Z,48.20
2018-05-29T15:44:10.337Z,47.70
2018-05-29T15:46:38.594Z,48.10
2018-05-29T15:49:07.632Z,49.00
2018-05-29T15:51:35.887Z,48.90
2018-05-29T15:54:04.138Z,48.40
2018-05-29T15:56:33.203Z,48.10
2018-05-29T15:59:01.479Z,48.00
2018-05-29T16:01:29.777Z,48.40
2018-05-29T16:03:58.830Z,49.00
2018-05-29T16:09:09.917Z,48.10
2018-05-29T16:11:38.152Z,49.70
2018-05-29T16:14:06.465Z,48.40
2018-05-29T16:16:34.701Z,48.90
2018-05-29T16:19:02.952Z,48.60
2018-05-29T16:21:32.009Z,48.60
2018-05-29T16:24:00.258Z,48.60
2018-05-29T16:26:28.545Z,48.20
2018-05-29T16:28:56.799Z,49.60
2018-05-29T16:31:25.077Z,49.00
2018-05-29T16:33:53.334Z,49.10
2018-05-29T16:36:22.457Z,49.90
2018-05-29T16:38:50.879Z,49.80
2018-05-29T16:41:19.145Z,50.00
2018-05-29T16:43:47.372Z,49.80
2018-05-29T16:46:15.801Z,49.90
2018-05-29T16:48:44.082Z,49.30
2018-05-29T16:51:12.300Z,49.40
2018-05-29T16:53:40.594Z,50.80
2018-05-29T16:56:08.900Z,50.10
2018-05-29T16:58:37.143Z,50.00
2018-05-29T17:01:05.427Z,52.80
2018-05-29T17:03:33.902Z,51.20
2018-05-29T17:06:02.158Z,49.70
2018-05-29T17:08:30.427Z,49.50
2018-05-29T17:10:58.680Z,50.30
2018-05-29T17:13:27.708Z,52.40
2018-05-29T17:15:55.978Z,52.40
2018-05-29T17:18:24.272Z,51.00
2018-05-29T17:20:52.523Z,50.70
2018-05-29T17:23:20.804Z,50.80
2018-05-29T17:25:49.077Z,50.00
2018-05-29T17:28:17.315Z,49.60
2018-05-29T17:30:45.741Z,50.80
2018-05-29T17:33:14.024Z,50.00
2018-05-29T17:35:42.288Z,49.90
2018-05-29T17:38:10.716Z,50.40
2018-05-29T17:40:38.967Z,49.20
2018-05-29T17:43:07.226Z,49.10
2018-05-29T17:45:35.502Z,48.10
2018-05-29T17:48:03.960Z,48.10
2018-05-29T17:50:33.970Z,47.40
2018-05-29T17:53:02.432Z,48.00
2018-05-29T17:55:31.645Z,48.50
2018-05-29T17:58:00.839Z,49.40
2018-05-29T18:00:29.246Z,49.30
2018-05-29T18:02:57.696Z,49.70
2018-05-29T18:05:26.932Z,48.50
2018-05-29T18:07:55.430Z,48.50
2018-05-29T18:10:23.938Z,47.80
2018-05-29T18:12:52.954Z,48.80
2018-05-29T18:15:21.392Z,48.80
2018-05-29T18:17:49.668Z,48.70
2018-05-29T18:20:18.366Z,49.30
2018-05-29T18:22:47.413Z,49.60
2018-05-29T18:25:15.685Z,49.60
2018-05-29T18:27:44.150Z,49.80
2018-05-29T18:30:12.436Z,50.80
2018-05-29T18:32:41.485Z,50.20
2018-05-29T18:35:09.811Z,50.20
2018-05-29T18:37:38.066Z,50.30
2018-05-29T18:40:06.358Z,51.20
2018-05-29T18:42:34.638Z,52.70
2018-05-29T18:45:03.075Z,52.60
2018-05-29T18:47:31.357Z,53.70
2018-05-29T18:50:00.459Z,55.80
2018-05-29T18:52:28.673Z,55.70
2018-05-29T18:54:56.937Z,56.40
2018-05-29T18:57:25.235Z,56.70
2018-05-29T18:59:53.488Z,56.80
2018-05-29T19:02:21.772Z,56.80
2018-05-29T19:04:50.065Z,58.20
2018-05-29T19:07:18.310Z,58.20
2018-05-29T19:09:46.616Z,58.20
2018-05-29T19:12:14.897Z,58.00
2018-05-29T19:14:43.147Z,58.10
2018-05-29T19:17:11.487Z,58.50
2018-05-29T19:19:39.678Z,58.40
2018-05-29T19:22:07.950Z,58.50
2018-05-29T19:24:36.383Z,58.70
2018-05-29T19:27:04.660Z,58.80
2018-05-29T19:29:32.911Z,58.90
2018-05-29T19:32:01.191Z,59.00
2018-05-29T19:34:29.473Z,59.00
2018-05-29T19:36:57.787Z,58.90
2018-05-29T19:39:26.031Z,59.30
2018-05-29T19:41:54.557Z,59.90
2018-05-29T19:44:22.834Z,60.00
2018-05-29T19:46:51.099Z,60.10
2018-05-29T19:49:20.148Z,60.90
2018-05-29T19:51:48.409Z,60.80
2018-05-29T19:54:16.867Z,60.60
2018-05-29T19:56:45.139Z,60.40
2018-05-29T19:59:13.382Z,60.30
2018-05-29T20:01:42.429Z,60.40
2018-05-29T20:04:10.699Z,60.40
2018-05-29T20:06:38.978Z,60.50
2018-05-29T20:09:07.247Z,60.30
2018-05-29T20:11:35.519Z,60.20
2018-05-29T20:14:03.793Z,60.20
2018-05-29T20:16:32.063Z,59.80
2018-05-29T20:19:00.337Z,60.20
2018-05-29T20:21:28.605Z,60.20
2018-05-29T20:23:56.873Z,60.30
2018-05-29T20:26:25.140Z,60.60
2018-05-29T20:28:53.410Z,60.50
2018-05-29T20:31:21.773Z,60.60
2018-05-29T20:33:49.965Z,60.80
2018-05-29T20:36:18.255Z,60.80
2018-05-29T20:38:46.528Z,61.10
2018-05-29T20:41:14.820Z,61.20
2018-05-29T20:43:43.179Z,61.90
2018-05-29T20:46:11.451Z,62.00
2018-05-29T20:48:39.917Z,61.90
2018-05-29T20:51:09.085Z,61.30
2018-05-29T20:53:37.343Z,61.40
2018-05-29T20:56:05.598Z,61.00
2018-05-29T20:58:33.881Z,60.60
2018-05-29T21:01:02.133Z,60.60
2018-05-29T21:03:30.397Z,60.60
2018-05-29T21:05:58.654Z,60.50
2018-05-29T21:08:27.688Z,61.00
2018-05-29T21:10:55.967Z,61.00
2018-05-29T21:13:24.239Z,61.10
2018-05-29T21:15:52.513Z,61.00
2018-05-29T21:18:20.786Z,60.70
2018-05-29T21:20:49.089Z,60.60
2018-05-29T21:23:17.346Z,61.40
2018-05-29T21:25:45.622Z,61.20
2018-05-29T21:28:13.913Z,61.70
2018-05-29T21:30:42.184Z,62.30
2018-05-29T21:33:10.463Z,62.50
2018-05-29T21:35:38.747Z,63.20
2018-05-29T21:38:08.532Z,63.90
2018-05-29T21:40:36.797Z,63.30
2018-05-29T21:43:05.076Z,63.10
2018-05-29T21:45:33.347Z,62.70
2018-05-29T21:48:01.632Z,62.30
2018-05-29T21:50:29.890Z,62.20
2018-05-29T21:52:58.154Z,62.00
2018-05-29T21:55:26.458Z,62.10
2018-05-29T21:57:54.732Z,61.70
2018-05-29T22:00:23.026Z,62.10
2018-05-29T22:02:51.288Z,62.00
2018-05-29T22:05:19.548Z,61.80
2018-05-29T22:07:48.066Z,61.40
2018-05-29T22:10:16.338Z,61.20
2018-05-29T22:12:44.593Z,60.80
2018-05-29T22:15:12.857Z,60.60
2018-05-29T22:17:41.112Z,60.30
2018-05-29T22:20:09.383Z,61.30
2018-05-29T22:22:37.647Z,61.10
2018-05-29T22:25:06.034Z,61.50
2018-05-29T22:27:34.326Z,61.50
2018-05-29T22:30:02.596Z,61.60
2018-05-29T22:32:30.843Z,62.10
2018-05-29T22:34:59.892Z,62.40
2018-05-29T22:37:28.161Z,62.40
2018-05-29T22:39:56.450Z,62.10
2018-05-29T22:42:24.723Z,62.20
2018-05-29T22:44:53.005Z,62.20
2018-05-29T22:47:21.281Z,62.00
2018-05-29T22:49:49.567Z,62.00
2018-05-29T22:52:17.856Z,61.50
2018-05-29T22:54:46.116Z,61.10
2018-05-29T22:57:14.418Z,61.20
2018-05-29T22:59:43.500Z,60.90
2018-05-29T23:02:11.775Z,60.80
2018-05-29T23:04:40.048Z,60.80
2018-05-29T23:07:08.343Z,61.40
2018-05-29T23:09:37.377Z,62.20
2018-05-29T23:12:05.653Z,62.10
2018-05-29T23:14:34.635Z,62.10
2018-05-29T23:17:02.913Z,61.90
2018-05-29T23:19:31.164Z,61.60
2018-05-29T23:21:59.455Z,61.40
2018-05-29T23:24:27.685Z,61.10
2018-05-29T23:26:56.751Z,60.90
2018-05-29T23:29:25.045Z,60.90
2018-05-29T23:31:53.355Z,61.60
2018-05-29T23:34:21.674Z,62.00
2018-05-29T23:36:49.968Z,61.80
2018-05-29T23:39:18.254Z,61.50
2018-05-29T23:41:46.523Z,61.70
2018-05-29T23:44:15.616Z,61.20
2018-05-29T23:46:43.879Z,61.10
2018-05-29T23:49:12.118Z,60.90
2018-05-29T23:51:40.419Z,61.40
2018-05-29T23:54:08.677Z,61.70
2018-05-29T23:56:37.003Z,62.00
2018-05-29T23:59:05.263Z,61.20
